Terminal Aerodrome Forecast
Issued by NWS Topeka, KS

Home | Current Version | Previous Version | Text Only | Print | Product List | Glossary Off
Versions: 1 2 3 4 5 6 7 8 9 10 11 12 13 14 15 16 17 18 19 20 21 22

000
FTUS43 KTOP 261741
TAFTOP
TAF
KTOP 261741Z 2618/2718 13006KT P6SM SCT016 BKN025
     FM262100 14007KT P6SM VCTS SCT012 BKN025CB
     FM270100 15006KT P6SM SCT025 BKN100
     FM270900 17005KT P6SM VCTS SCT020 BKN030CB
     FM271400 19006KT P6SM SCT020 BKN040=

USA.gov is the U.S. government's official web portal to all federal, state and local government web resources and services.